Главная страница
METAR-TAF:

METAR-TAF

Аэропорты :

Эри, Пенсильвания, США

широта: 42-04-48N, долгота: 080-10-57W, высота над уровнем моря: 223 м

Текущие метеонаблюдения

Эта сводка был подготовлена 1 час и 3 минут назад, в 20:51 UTC
Ветер 5 Узел от западно-северо-западный
Температура 32°C
Влажность 46%
Давление 1017 hPa
Видимость: 16.1 км
ясное небо

METAR: KERI 172051Z AUTO 30005KT 10SM CLR 32/19 A3004 RMK AO2 SLP167 T03170189 58014

Время: 17:54 (21:54 UTC)

Прогноз

Эта сводка был подготовлена 4 часа и 24 минут назад, в 17:30 UTC
Прогноз действительный с 17-го 18 UTC до 18-го 18 UTC
Ветер 5 Узел от западно-северо-западный
Видимость: 10 км
небольшая облачность на высоте 4500 фута
С 18-го 0000 UTC
Ветер 4 Узел от южный-юго-западный
Видимость: 10 км
Рассеянная облачность на высоте 25000 фута
С 18-го 1400 UTC
Ветер 10 Узел от юго-западный
Видимость: 10 км
Отдельные облака на высоте 4500 фута

TAF: KERI 171730Z 1718/1818 30005KT P6SM FEW045 FM180000 20004KT P6SM BKN250 FM181400 23010KT P6SM SCT045

Метеонаблюдения и прогнозы для более 4000 аэропортов (сводки METAR и TAF).

Имеющиеся станции представлены на карте желтыми и красными точками.

Чтобы увидеть название станции, наведите на нее мышь.

Затем щелкните, чтобы увидеть метеонаблюдения и метеопрогнозы.

Управление картой: чтобы увеличить масштаб, щелкните зеленые кнопки с черным крестиком; чтобы уменьшить масштаб, щелкните зеленую кнопку с тире; для просмотра соседних карт щелкайте зеленые стрелки.


METAR-TAF: